sensor_id;sensor_type;location;lat;lon;timestamp;pressure;altitude;pressure_sealevel;temperature;humidity
47763;BME280;33526;42.690;23.322;2023-12-14T00:01:39;94082.94;;;6.09;100.00
47763;BME280;33526;42.690;23.322;2023-12-14T00:04:07;94033.75;;;5.73;100.00
47763;BME280;33526;42.690;23.322;2023-12-14T00:06:33;94060.28;;;6.02;100.00
47763;BME280;33526;42.690;23.322;2023-12-14T00:08:58;94127.34;;;6.19;100.00
47763;BME280;33526;42.690;23.322;2023-12-14T00:11:24;93939.94;;;5.25;100.00
47763;BME280;33526;42.690;23.322;2023-12-14T00:13:49;93978.28;;;5.27;100.00
47763;BME280;33526;42.690;23.322;2023-12-14T00:16:15;94082.91;;;5.72;100.00
47763;BME280;33526;42.690;23.322;2023-12-14T00:18:40;94066.59;;;5.74;100.00
47763;BME280;33526;42.690;23.322;2023-12-14T00:21:06;94110.41;;;5.98;100.00
47763;BME280;33526;42.690;23.322;2023-12-14T00:23:31;94002.63;;;5.41;100.00
47763;BME280;33526;42.690;23.322;2023-12-14T00:25:58;94031.09;;;5.42;100.00
47763;BME280;33526;42.690;23.322;2023-12-14T00:28:24;94026.50;;;5.48;100.00
47763;BME280;33526;42.690;23.322;2023-12-14T00:30:49;94028.03;;;5.49;100.00
47763;BME280;33526;42.690;23.322;2023-12-14T00:33:15;94066.59;;;5.74;100.00
47763;BME280;33526;42.690;23.322;2023-12-14T00:35:40;94097.41;;;5.95;100.00
47763;BME280;33526;42.690;23.322;2023-12-14T00:38:05;94073.81;;;5.81;100.00
47763;BME280;33526;42.690;23.322;2023-12-14T00:40:31;94068.56;;;5.74;100.00
47763;BME280;33526;42.690;23.322;2023-12-14T00:42:56;94065.63;;;5.87;100.00
47763;BME280;33526;42.690;23.322;2023-12-14T00:45:21;94037.75;;;5.53;100.00
47763;BME280;33526;42.690;23.322;2023-12-14T00:47:47;93971.00;;;5.02;100.00
47763;BME280;33526;42.690;23.322;2023-12-14T00:50:12;94038.66;;;5.50;100.00
47763;BME280;33526;42.690;23.322;2023-12-14T00:52:38;94066.25;;;5.72;100.00
47763;BME280;33526;42.690;23.322;2023-12-14T00:55:03;94014.78;;;5.34;100.00
47763;BME280;33526;42.690;23.322;2023-12-14T00:57:29;94078.91;;;5.92;100.00
47763;BME280;33526;42.690;23.322;2023-12-14T00:59:54;94061.66;;;5.69;100.00
47763;BME280;33526;42.690;23.322;2023-12-14T01:02:20;94064.28;;;5.64;100.00
47763;BME280;33526;42.690;23.322;2023-12-14T01:04:45;94085.06;;;5.68;100.00
47763;BME280;33526;42.690;23.322;2023-12-14T01:07:11;94055.31;;;5.50;100.00
47763;BME280;33526;42.690;23.322;2023-12-14T01:09:36;94033.56;;;5.30;100.00
47763;BME280;33526;42.690;23.322;2023-12-14T01:12:02;94081.66;;;5.64;100.00
47763;BME280;33526;42.690;23.322;2023-12-14T01:14:27;94020.91;;;5.20;100.00
47763;BME280;33526;42.690;23.322;2023-12-14T01:16:52;94005.81;;;5.03;100.00
47763;BME280;33526;42.690;23.322;2023-12-14T01:19:18;94019.72;;;5.30;100.00
47763;BME280;33526;42.690;23.322;2023-12-14T01:21:44;93982.09;;;4.92;100.00
47763;BME280;33526;42.690;23.322;2023-12-14T01:24:09;93976.84;;;4.94;100.00
47763;BME280;33526;42.690;23.322;2023-12-14T01:26:35;94091.41;;;5.78;100.00
47763;BME280;33526;42.690;23.322;2023-12-14T01:29:00;94038.66;;;5.32;100.00
47763;BME280;33526;42.690;23.322;2023-12-14T01:31:26;94014.00;;;5.25;100.00
47763;BME280;33526;42.690;23.322;2023-12-14T01:33:51;93933.38;;;4.54;100.00
47763;BME280;33526;42.690;23.322;2023-12-14T01:36:24;93983.34;;;5.01;100.00
47763;BME280;33526;42.690;23.322;2023-12-14T01:38:50;94084.13;;;5.62;100.00
47763;BME280;33526;42.690;23.322;2023-12-14T01:41:16;94072.22;;;5.43;100.00
47763;BME280;33526;42.690;23.322;2023-12-14T01:43:41;94104.59;;;5.55;100.00
47763;BME280;33526;42.690;23.322;2023-12-14T01:46:07;93993.16;;;4.92;100.00
47763;BME280;33526;42.690;23.322;2023-12-14T01:48:32;94033.53;;;5.03;100.00
47763;BME280;33526;42.690;23.322;2023-12-14T01:50:58;94070.84;;;5.39;100.00
47763;BME280;33526;42.690;23.322;2023-12-14T01:53:23;94066.34;;;5.13;100.00
47763;BME280;33526;42.690;23.322;2023-12-14T01:55:49;94075.56;;;5.20;100.00
47763;BME280;33526;42.690;23.322;2023-12-14T01:58:14;93903.16;;;4.29;100.00
47763;BME280;33526;42.690;23.322;2023-12-14T02:00:44;94096.13;;;5.41;100.00
47763;BME280;33526;42.690;23.322;2023-12-14T02:03:11;94057.41;;;5.19;100.00
47763;BME280;33526;42.690;23.322;2023-12-14T02:05:36;94025.97;;;5.03;100.00
47763;BME280;33526;42.690;23.322;2023-12-14T02:08:02;94016.53;;;4.91;100.00
47763;BME280;33526;42.690;23.322;2023-12-14T02:10:28;94068.97;;;5.26;100.00
47763;BME280;33526;42.690;23.322;2023-12-14T02:12:53;93996.47;;;4.69;100.00
47763;BME280;33526;42.690;23.322;2023-12-14T02:15:18;94070.66;;;5.24;100.00
47763;BME280;33526;42.690;23.322;2023-12-14T02:17:44;93964.72;;;4.51;100.00
47763;BME280;33526;42.690;23.322;2023-12-14T02:20:09;94001.00;;;4.85;100.00
47763;BME280;33526;42.690;23.322;2023-12-14T02:22:51;93997.56;;;4.81;100.00
47763;BME280;33526;42.690;23.322;2023-12-14T02:25:18;94000.28;;;5.03;100.00
47763;BME280;33526;42.690;23.322;2023-12-14T02:27:44;93943.25;;;4.65;100.00
47763;BME280;33526;42.690;23.322;2023-12-14T02:30:10;93979.75;;;4.82;100.00
47763;BME280;33526;42.690;23.322;2023-12-14T02:32:37;94056.22;;;5.47;100.00
47763;BME280;33526;42.690;23.322;2023-12-14T02:35:03;94050.06;;;5.43;100.00
47763;BME280;33526;42.690;23.322;2023-12-14T02:37:28;94021.22;;;5.13;100.00
47763;BME280;33526;42.690;23.322;2023-12-14T02:39:54;93994.13;;;5.08;100.00
47763;BME280;33526;42.690;23.322;2023-12-14T02:42:19;93974.53;;;4.93;100.00
47763;BME280;33526;42.690;23.322;2023-12-14T02:44:45;93907.88;;;4.69;100.00
47763;BME280;33526;42.690;23.322;2023-12-14T02:47:10;94053.94;;;5.46;100.00
47763;BME280;33526;42.690;23.322;2023-12-14T02:49:35;93971.91;;;4.80;100.00
47763;BME280;33526;42.690;23.322;2023-12-14T02:52:01;93942.00;;;4.66;100.00
47763;BME280;33526;42.690;23.322;2023-12-14T02:54:26;94004.81;;;4.78;100.00
47763;BME280;33526;42.690;23.322;2023-12-14T02:56:52;93989.13;;;4.84;100.00
47763;BME280;33526;42.690;23.322;2023-12-14T02:59:17;93954.94;;;4.69;100.00
47763;BME280;33526;42.690;23.322;2023-12-14T03:01:42;94093.66;;;5.43;100.00
47763;BME280;33526;42.690;23.322;2023-12-14T03:04:08;93986.41;;;4.93;100.00
47763;BME280;33526;42.690;23.322;2023-12-14T03:06:33;93998.69;;;4.92;100.00
47763;BME280;33526;42.690;23.322;2023-12-14T03:08:59;94009.50;;;5.09;100.00
47763;BME280;33526;42.690;23.322;2023-12-14T03:11:25;94049.59;;;5.45;100.00
47763;BME280;33526;42.690;23.322;2023-12-14T03:13:50;94006.00;;;5.17;100.00
47763;BME280;33526;42.690;23.322;2023-12-14T03:16:16;94041.91;;;5.49;100.00
47763;BME280;33526;42.690;23.322;2023-12-14T03:18:45;93897.69;;;4.56;100.00
47763;BME280;33526;42.690;23.322;2023-12-14T03:21:10;93972.41;;;5.06;100.00
47763;BME280;33526;42.690;23.322;2023-12-14T03:23:36;94035.13;;;5.50;100.00
47763;BME280;33526;42.690;23.322;2023-12-14T03:26:01;93943.47;;;4.98;100.00
47763;BME280;33526;42.690;23.322;2023-12-14T03:28:27;93919.94;;;4.93;100.00
47763;BME280;33526;42.690;23.322;2023-12-14T03:30:53;94001.88;;;5.41;100.00
47763;BME280;33526;42.690;23.322;2023-12-14T03:33:18;93915.28;;;4.90;100.00
47763;BME280;33526;42.690;23.322;2023-12-14T03:35:43;94037.75;;;5.63;100.00
47763;BME280;33526;42.690;23.322;2023-12-14T03:38:09;93941.78;;;5.19;100.00
47763;BME280;33526;42.690;23.322;2023-12-14T03:40:35;93914.84;;;5.01;100.00
47763;BME280;33526;42.690;23.322;2023-12-14T03:43:01;93870.63;;;4.70;100.00
47763;BME280;33526;42.690;23.322;2023-12-14T03:45:28;93911.94;;;5.05;100.00
47763;BME280;33526;42.690;23.322;2023-12-14T03:47:54;93987.09;;;5.53;100.00
47763;BME280;33526;42.690;23.322;2023-12-14T03:50:19;93990.78;;;5.59;100.00
47763;BME280;33526;42.690;23.322;2023-12-14T03:52:44;93974.59;;;5.48;100.00
47763;BME280;33526;42.690;23.322;2023-12-14T03:55:10;93989.22;;;5.58;100.00
47763;BME280;33526;42.690;23.322;2023-12-14T03:57:35;94003.41;;;5.69;100.00
47763;BME280;33526;42.690;23.322;2023-12-14T04:00:01;93990.78;;;5.59;100.00
47763;BME280;33526;42.690;23.322;2023-12-14T04:02:27;93810.91;;;4.32;100.00
47763;BME280;33526;42.690;23.322;2023-12-14T04:04:53;93981.84;;;5.46;100.00
47763;BME280;33526;42.690;23.322;2023-12-14T04:07:18;93891.44;;;4.93;100.00
47763;BME280;33526;42.690;23.322;2023-12-14T04:09:44;94020.34;;;5.81;100.00
47763;BME280;33526;42.690;23.322;2023-12-14T04:12:10;93974.91;;;5.41;100.00
47763;BME280;33526;42.690;23.322;2023-12-14T04:14:36;93915.91;;;5.13;100.00
47763;BME280;33526;42.690;23.322;2023-12-14T04:17:01;93989.22;;;5.58;100.00
47763;BME280;33526;42.690;23.322;2023-12-14T04:19:27;93954.09;;;5.27;100.00
47763;BME280;33526;42.690;23.322;2023-12-14T04:21:52;93940.25;;;5.18;100.00
47763;BME280;33526;42.690;23.322;2023-12-14T04:24:18;94021.88;;;5.54;100.00
47763;BME280;33526;42.690;23.322;2023-12-14T04:26:43;93988.63;;;5.35;100.00
47763;BME280;33526;42.690;23.322;2023-12-14T04:29:09;93979.19;;;5.24;100.00
47763;BME280;33526;42.690;23.322;2023-12-14T04:31:34;93890.16;;;4.66;100.00
47763;BME280;33526;42.690;23.322;2023-12-14T04:34:00;93905.13;;;4.87;100.00
47763;BME280;33526;42.690;23.322;2023-12-14T04:36:26;93951.19;;;5.12;100.00
47763;BME280;33526;42.690;23.322;2023-12-14T04:38:51;93952.56;;;5.08;100.00
47763;BME280;33526;42.690;23.322;2023-12-14T04:41:17;93885.94;;;4.34;100.00
47763;BME280;33526;42.690;23.322;2023-12-14T04:43:42;94003.34;;;5.05;100.00
47763;BME280;33526;42.690;23.322;2023-12-14T04:46:08;94025.09;;;5.25;100.00
47763;BME280;33526;42.690;23.322;2023-12-14T04:48:33;93950.16;;;4.69;100.00
47763;BME280;33526;42.690;23.322;2023-12-14T04:50:59;93909.16;;;4.27;100.00
47763;BME280;33526;42.690;23.322;2023-12-14T04:53:24;93957.41;;;4.67;100.00
47763;BME280;33526;42.690;23.322;2023-12-14T04:55:50;94044.88;;;4.95;100.00
47763;BME280;33526;42.690;23.322;2023-12-14T04:58:15;93924.63;;;4.15;100.00
47763;BME280;33526;42.690;23.322;2023-12-14T05:00:41;93978.88;;;4.53;100.00
47763;BME280;33526;42.690;23.322;2023-12-14T05:03:06;93893.41;;;4.06;100.00
47763;BME280;33526;42.690;23.322;2023-12-14T05:05:32;93891.25;;;4.10;100.00
47763;BME280;33526;42.690;23.322;2023-12-14T05:07:57;93989.28;;;4.81;100.00
47763;BME280;33526;42.690;23.322;2023-12-14T05:10:23;93981.91;;;4.87;100.00
47763;BME280;33526;42.690;23.322;2023-12-14T05:12:48;93898.84;;;4.28;100.00
47763;BME280;33526;42.690;23.322;2023-12-14T05:15:14;94011.34;;;5.03;100.00
47763;BME280;33526;42.690;23.322;2023-12-14T05:17:39;93958.94;;;4.68;100.00
47763;BME280;33526;42.690;23.322;2023-12-14T05:20:08;93880.69;;;4.27;100.00
47763;BME280;33526;42.690;23.322;2023-12-14T05:22:34;94058.50;;;5.30;100.00
47763;BME280;33526;42.690;23.322;2023-12-14T05:24:59;93958.94;;;4.77;100.00
47763;BME280;33526;42.690;23.322;2023-12-14T05:27:25;94063.44;;;5.26;100.00
47763;BME280;33526;42.690;23.322;2023-12-14T05:29:51;93965.44;;;4.83;100.00
47763;BME280;33526;42.690;23.322;2023-12-14T05:32:16;94050.19;;;5.30;100.00
47763;BME280;33526;42.690;23.322;2023-12-14T05:34:44;93810.81;;;3.86;100.00
47763;BME280;33526;42.690;23.322;2023-12-14T05:37:09;93898.56;;;4.35;100.00
47763;BME280;33526;42.690;23.322;2023-12-14T05:39:35;93953.97;;;4.53;100.00
47763;BME280;33526;42.690;23.322;2023-12-14T05:42:00;94078.50;;;5.25;100.00
47763;BME280;33526;42.690;23.322;2023-12-14T05:44:26;94038.47;;;5.17;100.00
47763;BME280;33526;42.690;23.322;2023-12-14T05:46:51;93993.75;;;4.87;100.00
47763;BME280;33526;42.690;23.322;2023-12-14T05:49:17;94003.34;;;5.05;100.00
47763;BME280;33526;42.690;23.322;2023-12-14T05:51:42;93884.69;;;4.26;100.00
47763;BME280;33526;42.690;23.322;2023-12-14T05:54:08;93997.81;;;5.05;100.00
47763;BME280;33526;42.690;23.322;2023-12-14T05:56:33;94018.28;;;5.07;100.00
47763;BME280;33526;42.690;23.322;2023-12-14T05:58:59;93844.38;;;4.06;100.00
47763;BME280;33526;42.690;23.322;2023-12-14T06:01:24;93915.88;;;4.57;100.00
47763;BME280;33526;42.690;23.322;2023-12-14T06:03:51;93855.00;;;4.17;100.00
47763;BME280;33526;42.690;23.322;2023-12-14T06:06:16;94072.88;;;5.57;100.00
47763;BME280;33526;42.690;23.322;2023-12-14T06:08:42;93908.59;;;4.42;100.00
47763;BME280;33526;42.690;23.322;2023-12-14T06:11:09;93953.25;;;4.71;100.00
47763;BME280;33526;42.690;23.322;2023-12-14T06:13:34;94036.81;;;5.38;100.00
47763;BME280;33526;42.690;23.322;2023-12-14T06:16:00;94075.50;;;5.60;100.00
47763;BME280;33526;42.690;23.322;2023-12-14T06:18:26;93931.53;;;4.60;100.00
47763;BME280;33526;42.690;23.322;2023-12-14T06:20:52;93832.22;;;4.04;100.00
47763;BME280;33526;42.690;23.322;2023-12-14T06:23:18;94000.00;;;5.38;100.00
47763;BME280;33526;42.690;23.322;2023-12-14T06:25:43;93853.09;;;4.45;100.00
47763;BME280;33526;42.690;23.322;2023-12-14T06:28:09;94000.78;;;5.47;100.00
47763;BME280;33526;42.690;23.322;2023-12-14T06:30:34;93921.59;;;5.00;100.00
47763;BME280;33526;42.690;23.322;2023-12-14T06:33:00;93983.69;;;5.30;100.00
47763;BME280;33526;42.690;23.322;2023-12-14T06:35:26;93917.00;;;5.06;100.00
47763;BME280;33526;42.690;23.322;2023-12-14T06:37:51;93958.88;;;5.27;100.00
47763;BME280;33526;42.690;23.322;2023-12-14T06:40:17;93993.69;;;5.46;100.00
47763;BME280;33526;42.690;23.322;2023-12-14T06:42:42;93955.34;;;5.35;100.00
47763;BME280;33526;42.690;23.322;2023-12-14T06:45:08;93971.38;;;5.41;100.00
47763;BME280;33526;42.690;23.322;2023-12-14T06:47:35;94107.56;;;6.44;100.00
47763;BME280;33526;42.690;23.322;2023-12-14T06:50:02;94036.09;;;6.02;100.00
47763;BME280;33526;42.690;23.322;2023-12-14T06:52:28;94027.16;;;5.98;100.00
47763;BME280;33526;42.690;23.322;2023-12-14T06:54:53;94017.25;;;6.06;100.00
47763;BME280;33526;42.690;23.322;2023-12-14T06:57:21;94079.47;;;6.51;100.00
47763;BME280;33526;42.690;23.322;2023-12-14T06:59:47;94032.94;;;6.28;100.00
47763;BME280;33526;42.690;23.322;2023-12-14T07:02:12;93895.13;;;5.36;100.00
47763;BME280;33526;42.690;23.322;2023-12-14T07:04:38;94008.31;;;6.11;100.00
47763;BME280;33526;42.690;23.322;2023-12-14T07:07:03;94018.00;;;6.25;100.00
47763;BME280;33526;42.690;23.322;2023-12-14T07:09:29;94102.88;;;6.78;100.00
47763;BME280;33526;42.690;23.322;2023-12-14T07:11:55;94029.56;;;6.33;100.00
47763;BME280;33526;42.690;23.322;2023-12-14T07:14:22;94006.31;;;6.21;100.00
47763;BME280;33526;42.690;23.322;2023-12-14T07:16:47;93972.56;;;5.95;100.00
47763;BME280;33526;42.690;23.322;2023-12-14T07:19:15;93973.47;;;5.92;100.00
47763;BME280;33526;42.690;23.322;2023-12-14T07:21:41;94000.13;;;6.17;100.00
47763;BME280;33526;42.690;23.322;2023-12-14T07:24:07;93962.09;;;5.99;100.00
47763;BME280;33526;42.690;23.322;2023-12-14T07:26:33;94005.50;;;6.30;100.00
47763;BME280;33526;42.690;23.322;2023-12-14T07:28:58;94006.69;;;6.47;100.00
47763;BME280;33526;42.690;23.322;2023-12-14T07:31:24;94086.13;;;6.97;100.00
47763;BME280;33526;42.690;23.322;2023-12-14T07:33:49;94022.38;;;6.60;100.00
47763;BME280;33526;42.690;23.322;2023-12-14T07:36:15;94066.66;;;7.06;100.00
47763;BME280;33526;42.690;23.322;2023-12-14T07:38:40;94018.25;;;6.88;100.00
47763;BME280;33526;42.690;23.322;2023-12-14T07:41:06;94068.09;;;7.25;100.00
47763;BME280;33526;42.690;23.322;2023-12-14T07:43:31;94122.66;;;7.56;100.00
47763;BME280;33526;42.690;23.322;2023-12-14T07:45:57;93984.56;;;6.62;100.00
47763;BME280;33526;42.690;23.322;2023-12-14T07:48:23;94062.72;;;7.22;100.00
47763;BME280;33526;42.690;23.322;2023-12-14T07:50:48;94078.16;;;7.47;100.00
47763;BME280;33526;42.690;23.322;2023-12-14T07:53:14;94083.72;;;7.56;100.00
47763;BME280;33526;42.690;23.322;2023-12-14T07:55:40;93934.16;;;6.55;100.00
47763;BME280;33526;42.690;23.322;2023-12-14T07:58:07;94017.28;;;7.25;100.00
47763;BME280;33526;42.690;23.322;2023-12-14T08:00:33;94154.25;;;8.16;100.00
47763;BME280;33526;42.690;23.322;2023-12-14T08:03:02;94158.53;;;8.27;100.00
47763;BME280;33526;42.690;23.322;2023-12-14T08:05:28;94164.69;;;8.31;100.00
47763;BME280;33526;42.690;23.322;2023-12-14T08:07:53;94096.41;;;7.96;100.00
47763;BME280;33526;42.690;23.322;2023-12-14T08:10:19;94028.59;;;7.70;100.00
47763;BME280;33526;42.690;23.322;2023-12-14T08:12:45;94024.78;;;7.82;100.00
47763;BME280;33526;42.690;23.322;2023-12-14T08:15:12;94042.50;;;8.09;100.00
47763;BME280;33526;42.690;23.322;2023-12-14T08:17:39;94143.06;;;8.79;100.00
47763;BME280;33526;42.690;23.322;2023-12-14T08:20:06;94088.19;;;8.56;100.00
47763;BME280;33526;42.690;23.322;2023-12-14T08:22:34;94160.19;;;9.17;100.00
47763;BME280;33526;42.690;23.322;2023-12-14T08:25:02;93991.59;;;8.08;100.00
47763;BME280;33526;42.690;23.322;2023-12-14T08:27:30;94020.91;;;8.33;100.00
47763;BME280;33526;42.690;23.322;2023-12-14T08:29:57;94008.72;;;8.16;100.00
47763;BME280;33526;42.690;23.322;2023-12-14T08:32:25;94080.22;;;8.78;100.00
47763;BME280;33526;42.690;23.322;2023-12-14T08:34:51;94044.19;;;8.60;100.00
47763;BME280;33526;42.690;23.322;2023-12-14T08:37:18;94099.31;;;9.15;100.00
47763;BME280;33526;42.690;23.322;2023-12-14T08:39:43;94057.72;;;8.97;100.00
47763;BME280;33526;42.690;23.322;2023-12-14T08:42:09;93992.13;;;8.66;100.00
47763;BME280;33526;42.690;23.322;2023-12-14T08:44:39;93917.03;;;8.27;100.00
47763;BME280;33526;42.690;23.322;2023-12-14T08:47:06;93948.78;;;8.65;98.85
47763;BME280;33526;42.690;23.322;2023-12-14T08:49:35;94176.88;;;10.32;95.18
47763;BME280;33526;42.690;23.322;2023-12-14T08:52:02;94115.72;;;9.99;94.92
47763;BME280;33526;42.690;23.322;2023-12-14T08:54:29;93944.13;;;8.92;94.62
47763;BME280;33526;42.690;23.322;2023-12-14T08:56:56;94129.66;;;10.35;95.60
47763;BME280;33526;42.690;23.322;2023-12-14T08:59:22;94059.66;;;10.03;92.96
47763;BME280;33526;42.690;23.322;2023-12-14T09:01:47;94123.63;;;10.42;90.34
47763;BME280;33526;42.690;23.322;2023-12-14T09:04:14;94043.13;;;9.99;89.07
47763;BME280;33526;42.690;23.322;2023-12-14T09:06:39;93976.59;;;9.51;89.14
47763;BME280;33526;42.690;23.322;2023-12-14T09:09:12;93981.13;;;9.69;86.50
47763;BME280;33526;42.690;23.322;2023-12-14T09:11:38;94163.34;;;10.98;87.18
47763;BME280;33526;42.690;23.322;2023-12-14T09:14:05;93929.06;;;9.45;85.87
47763;BME280;33526;42.690;23.322;2023-12-14T09:16:32;93990.84;;;10.00;84.53
47763;BME280;33526;42.690;23.322;2023-12-14T09:18:57;94029.06;;;10.35;84.75
47763;BME280;33526;42.690;23.322;2023-12-14T09:21:24;94058.88;;;10.69;83.55
47763;BME280;33526;42.690;23.322;2023-12-14T09:23:50;94090.31;;;11.17;81.73
47763;BME280;33526;42.690;23.322;2023-12-14T09:26:15;93986.00;;;10.47;80.72
47763;BME280;33526;42.690;23.322;2023-12-14T09:28:41;94145.63;;;11.65;80.10
47763;BME280;33526;42.690;23.322;2023-12-14T09:31:09;94154.63;;;11.80;78.10
47763;BME280;33526;42.690;23.322;2023-12-14T09:33:34;94090.47;;;11.39;78.01
47763;BME280;33526;42.690;23.322;2023-12-14T09:36:00;94045.00;;;11.13;76.73
47763;BME280;33526;42.690;23.322;2023-12-14T09:38:26;94053.75;;;11.26;75.71
47763;BME280;33526;42.690;23.322;2023-12-14T09:40:52;94101.75;;;11.51;75.85
47763;BME280;33526;42.690;23.322;2023-12-14T09:43:19;94173.34;;;11.95;75.55
47763;BME280;33526;42.690;23.322;2023-12-14T09:45:47;94177.00;;;12.12;73.64
47763;BME280;33526;42.690;23.322;2023-12-14T09:48:13;94065.88;;;11.49;73.15
47763;BME280;33526;42.690;23.322;2023-12-14T09:50:40;94088.88;;;11.70;72.42
47763;BME280;33526;42.690;23.322;2023-12-14T09:53:06;94058.72;;;11.48;71.66
47763;BME280;33526;42.690;23.322;2023-12-14T09:55:32;94063.50;;;11.36;71.25
47763;BME280;33526;42.690;23.322;2023-12-14T09:57:58;94057.91;;;11.36;70.95
47763;BME280;33526;42.690;23.322;2023-12-14T10:00:33;94156.59;;;12.06;72.30
47763;BME280;33526;42.690;23.322;2023-12-14T10:03:20;94188.81;;;12.33;71.08
47763;BME280;33526;42.690;23.322;2023-12-14T10:05:46;94148.75;;;12.16;70.06
47763;BME280;33526;42.690;23.322;2023-12-14T10:08:12;94183.78;;;12.43;69.65
47763;BME280;33526;42.690;23.322;2023-12-14T10:10:38;94108.34;;;11.85;70.09
47763;BME280;33526;42.690;23.322;2023-12-14T10:13:04;94062.56;;;11.51;72.11
47763;BME280;33526;42.690;23.322;2023-12-14T10:15:51;94142.78;;;11.97;70.85
47763;BME280;33526;42.690;23.322;2023-12-14T10:18:24;94161.50;;;12.22;70.99
47763;BME280;33526;42.690;23.322;2023-12-14T10:20:51;94127.09;;;11.73;72.14
47763;BME280;33526;42.690;23.322;2023-12-14T10:23:17;93975.19;;;10.92;71.48
47763;BME280;33526;42.690;23.322;2023-12-14T10:26:01;93977.56;;;10.73;73.31
47763;BME280;33526;42.690;23.322;2023-12-14T10:28:26;94172.88;;;12.02;73.38
47763;BME280;33526;42.690;23.322;2023-12-14T10:30:53;94106.34;;;11.54;73.82
47763;BME280;33526;42.690;23.322;2023-12-14T10:33:19;94028.41;;;10.71;76.00
47763;BME280;33526;42.690;23.322;2023-12-14T10:35:45;94090.31;;;11.17;75.98
47763;BME280;33526;42.690;23.322;2023-12-14T10:38:13;94100.19;;;11.12;75.62
47763;BME280;33526;42.690;23.322;2023-12-14T10:40:40;94112.84;;;11.39;75.80
47763;BME280;33526;42.690;23.322;2023-12-14T10:43:12;94134.09;;;11.57;82.75
47763;BME280;33526;42.690;23.322;2023-12-14T10:45:41;94047.47;;;10.73;89.02
47763;BME280;33526;42.690;23.322;2023-12-14T10:48:09;94076.81;;;10.57;97.04
47763;BME280;33526;42.690;23.322;2023-12-14T10:50:42;94096.53;;;10.74;100.00
47763;BME280;33526;42.690;23.322;2023-12-14T10:53:14;94238.41;;;11.26;100.00
47763;BME280;33526;42.690;23.322;2023-12-14T10:55:44;94024.50;;;9.90;100.00
47763;BME280;33526;42.690;23.322;2023-12-14T10:58:11;93990.31;;;9.75;100.00
47763;BME280;33526;42.690;23.322;2023-12-14T11:00:37;94036.22;;;9.94;100.00
47763;BME280;33526;42.690;23.322;2023-12-14T11:03:06;94115.81;;;10.25;100.00
47763;BME280;33526;42.690;23.322;2023-12-14T11:05:33;94126.88;;;9.99;100.00
47763;BME280;33526;42.690;23.322;2023-12-14T11:08:05;94229.81;;;10.42;100.00
47763;BME280;33526;42.690;23.322;2023-12-14T11:10:42;94231.97;;;10.32;100.00
47763;BME280;33526;42.690;23.322;2023-12-14T11:13:13;94254.56;;;10.49;100.00
47763;BME280;33526;42.690;23.322;2023-12-14T11:15:48;94184.63;;;10.08;100.00
47763;BME280;33526;42.690;23.322;2023-12-14T11:18:24;94160.41;;;9.64;100.00
47763;BME280;33526;42.690;23.322;2023-12-14T11:20:58;94115.19;;;9.24;100.00
47763;BME280;33526;42.690;23.322;2023-12-14T11:26:03;94264.91;;;9.92;100.00
47763;BME280;33526;42.690;23.322;2023-12-14T11:28:34;94184.13;;;9.24;100.00
47763;BME280;33526;42.690;23.322;2023-12-14T11:31:00;94170.97;;;9.09;100.00
47763;BME280;33526;42.690;23.322;2023-12-14T11:33:34;94200.94;;;9.14;100.00
47763;BME280;33526;42.690;23.322;2023-12-14T11:36:01;94294.84;;;9.77;100.00
47763;BME280;33526;42.690;23.322;2023-12-14T11:38:29;94288.13;;;9.69;100.00
47763;BME280;33526;42.690;23.322;2023-12-14T11:40:55;94221.84;;;9.19;100.00
47763;BME280;33526;42.690;23.322;2023-12-14T11:43:21;94306.41;;;9.55;100.00
47763;BME280;33526;42.690;23.322;2023-12-14T11:45:50;94245.94;;;9.07;100.00
47763;BME280;33526;42.690;23.322;2023-12-14T11:48:26;94139.72;;;8.36;100.00
47763;BME280;33526;42.690;23.322;2023-12-14T11:50:53;94086.00;;;7.82;100.00
47763;BME280;33526;42.690;23.322;2023-12-14T11:53:21;94285.84;;;8.98;100.00
47763;BME280;33526;42.690;23.322;2023-12-14T11:55:46;94178.56;;;8.16;100.00
47763;BME280;33526;42.690;23.322;2023-12-14T11:58:18;94190.97;;;8.30;100.00
47763;BME280;33526;42.690;23.322;2023-12-14T12:01:15;94122.81;;;7.77;100.00
47763;BME280;33526;42.690;23.322;2023-12-14T12:03:42;94330.03;;;9.15;100.00
47763;BME280;33526;42.690;23.322;2023-12-14T12:06:19;94268.09;;;8.48;100.00
47763;BME280;33526;42.690;23.322;2023-12-14T12:08:48;94340.25;;;8.94;100.00
47763;BME280;33526;42.690;23.322;2023-12-14T12:11:17;94346.69;;;9.00;100.00
47763;BME280;33526;42.690;23.322;2023-12-14T12:13:53;94311.84;;;8.80;100.00
47763;BME280;33526;42.690;23.322;2023-12-14T12:16:19;94286.16;;;8.76;100.00
47763;BME280;33526;42.690;23.322;2023-12-14T12:18:44;94269.59;;;8.58;100.00
47763;BME280;33526;42.690;23.322;2023-12-14T12:21:11;94318.41;;;8.92;100.00
47763;BME280;33526;42.690;23.322;2023-12-14T12:23:40;94231.88;;;8.48;100.00
47763;BME280;33526;42.690;23.322;2023-12-14T12:26:07;94309.06;;;8.80;100.00
47763;BME280;33526;42.690;23.322;2023-12-14T12:28:33;94237.25;;;8.27;100.00
47763;BME280;33526;42.690;23.322;2023-12-14T12:30:59;94221.63;;;8.06;100.00
47763;BME280;33526;42.690;23.322;2023-12-14T12:33:28;94118.25;;;7.40;100.00
47763;BME280;33526;42.690;23.322;2023-12-14T12:35:56;94118.94;;;7.26;100.00
47763;BME280;33526;42.690;23.322;2023-12-14T12:38:24;94294.50;;;8.28;100.00
47763;BME280;33526;42.690;23.322;2023-12-14T12:40:50;94204.75;;;7.76;100.00
47763;BME280;33526;42.690;23.322;2023-12-14T12:43:15;94324.78;;;8.45;100.00
47763;BME280;33526;42.690;23.322;2023-12-14T12:45:41;94198.97;;;7.55;100.00
47763;BME280;33526;42.690;23.322;2023-12-14T12:48:06;94261.22;;;8.00;100.00
47763;BME280;33526;42.690;23.322;2023-12-14T12:50:32;94196.53;;;7.48;100.00